Time,TemperatureF,DewpointF,PressureIn,WindDirection,WindDirectionDegrees,WindSpeedMPH,WindSpeedGustMPH,Humidity,HourlyPrecipIn,Conditions,Clouds,dailyrainin,SolarRadiationWatts/m^2,SoftwareType,DateUTC
2013-10-05 00:22:00,38.0,25.0,-100.00,ENE,58,7.0,10.0,58,0.00,,,-99.99,0.000000,,2013-10-05 07:22:00,
2013-10-05 00:32:00,38.0,25.0,-100.00,ENE,58,7.0,10.0,58,0.00,,,-99.99,0.000000,,2013-10-05 07:32:00,
2013-10-05 00:42:00,38.0,25.0,-100.00,ENE,58,7.0,10.0,58,0.00,,,-99.99,0.000000,,2013-10-05 07:42:00,
2013-10-05 00:52:00,38.0,25.0,-100.00,ENE,58,7.0,10.0,58,0.00,,,-99.99,0.000000,,2013-10-05 07:52:00,
2013-10-05 01:23:00,36.0,24.0,-100.00,ENE,74,6.0,8.0,61,0.00,,,0.00,0.000000,,2013-10-05 08:23:00,
2013-10-05 01:32:00,36.0,24.0,-100.00,ENE,74,6.0,8.0,61,0.00,,,0.00,0.000000,,2013-10-05 08:32:00,
2013-10-05 01:42:00,36.0,24.0,-100.00,ENE,74,6.0,8.0,61,0.00,,,0.00,0.000000,,2013-10-05 08:42:00,
2013-10-05 01:52:00,36.0,24.0,-100.00,ENE,74,6.0,8.0,61,0.00,,,0.00,0.000000,,2013-10-05 08:52:00,
2013-10-05 02:21:00,33.0,23.0,-100.00,ENE,73,6.0,9.0,66,0.00,,,0.00,0.000000,,2013-10-05 09:21:00,
2013-10-05 02:33:00,33.0,23.0,-100.00,ENE,73,6.0,9.0,66,0.00,,,0.00,0.000000,,2013-10-05 09:33:00,
2013-10-05 02:43:00,33.0,23.0,-100.00,ENE,73,6.0,9.0,66,0.00,,,0.00,0.000000,,2013-10-05 09:43:00,
2013-10-05 02:54:00,33.0,23.0,-100.00,ENE,73,6.0,9.0,66,0.00,,,0.00,0.000000,,2013-10-05 09:54:00,
2013-10-05 03:23:00,32.0,22.0,-100.00,East,80,6.0,9.0,66,0.00,,,0.00,0.000000,,2013-10-05 10:23:00,
2013-10-05 03:32:00,32.0,22.0,-100.00,East,80,6.0,9.0,66,0.00,,,0.00,0.000000,,2013-10-05 10:32:00,
2013-10-05 03:43:00,32.0,22.0,-100.00,East,80,6.0,9.0,66,0.00,,,0.00,0.000000,,2013-10-05 10:43:00,
2013-10-05 03:53:00,32.0,22.0,-100.00,East,80,6.0,9.0,66,0.00,,,0.00,0.000000,,2013-10-05 10:53:00,
2013-10-05 04:22:00,32.0,22.0,-100.00,ENE,65,7.0,9.0,67,0.00,,,0.00,0.000000,,2013-10-05 11:22:00,
2013-10-05 04:33:00,32.0,22.0,-100.00,ENE,65,7.0,9.0,67,0.00,,,0.00,0.000000,,2013-10-05 11:33:00,
2013-10-05 04:42:00,32.0,22.0,-100.00,ENE,65,7.0,9.0,67,0.00,,,0.00,0.000000,,2013-10-05 11:42:00,
2013-10-05 04:52:00,32.0,22.0,-100.00,ENE,65,7.0,9.0,67,0.00,,,0.00,0.000000,,2013-10-05 11:52:00,
2013-10-05 05:22:00,30.0,22.0,-100.00,ENE,67,8.0,10.0,73,0.00,,,0.00,0.000000,,2013-10-05 12:22:00,
2013-10-05 05:32:00,30.0,22.0,-100.00,ENE,67,8.0,10.0,73,0.00,,,0.00,0.000000,,2013-10-05 12:32:00,
2013-10-05 05:42:00,30.0,22.0,-100.00,ENE,67,8.0,10.0,73,0.00,,,0.00,0.000000,,2013-10-05 12:42:00,
2013-10-05 05:52:00,30.0,22.0,-100.00,ENE,67,8.0,10.0,73,0.00,,,0.00,0.000000,,2013-10-05 12:52:00,
2013-10-05 06:22:00,30.0,23.0,-100.00,NE,56,7.0,10.0,74,0.00,,,0.00,0.000000,,2013-10-05 13:22:00,
2013-10-05 06:32:00,30.0,23.0,-100.00,NE,56,7.0,10.0,74,0.00,,,0.00,0.000000,,2013-10-05 13:32:00,
2013-10-05 06:42:00,30.0,23.0,-100.00,NE,56,7.0,10.0,74,0.00,,,0.00,0.000000,,2013-10-05 13:42:00,
2013-10-05 06:52:00,30.0,23.0,-100.00,NE,56,7.0,10.0,74,0.00,,,0.00,0.000000,,2013-10-05 13:52:00,
2013-10-05 07:22:00,26.0,22.0,-100.00,ENE,71,7.0,9.0,84,0.00,,,-99.99,0.000000,,2013-10-05 14:22:00,
2013-10-05 07:32:00,26.0,22.0,-100.00,ENE,71,7.0,9.0,84,0.00,,,-99.99,0.000000,,2013-10-05 14:32:00,
2013-10-05 07:52:00,26.0,22.0,-100.00,ENE,71,7.0,9.0,84,0.00,,,-99.99,0.000000,,2013-10-05 14:52:00,
2013-10-05 08:22:00,28.0,22.0,-100.00,ENE,70,8.0,11.0,79,0.00,,,0.00,11.000000,,2013-10-05 15:22:00,
2013-10-05 08:33:00,28.0,22.0,-100.00,ENE,70,8.0,11.0,79,0.00,,,0.00,11.000000,,2013-10-05 15:33:00,
2013-10-05 08:44:00,28.0,22.0,-100.00,ENE,70,8.0,11.0,79,0.00,,,0.00,11.000000,,2013-10-05 15:44:00,
2013-10-05 08:53:00,28.0,22.0,-100.00,ENE,70,8.0,11.0,79,0.00,,,0.00,11.000000,,2013-10-05 15:53:00,
2013-10-05 09:23:00,35.0,24.0,-100.00,ENE,73,8.0,12.0,64,0.00,,,0.00,166.000000,,2013-10-05 16:23:00,
2013-10-05 09:33:00,35.0,24.0,-100.00,ENE,73,8.0,12.0,64,0.00,,,0.00,166.000000,,2013-10-05 16:33:00,
2013-10-05 09:43:00,35.0,24.0,-100.00,ENE,73,8.0,12.0,64,0.00,,,0.00,166.000000,,2013-10-05 16:43:00,
2013-10-05 09:53:00,35.0,24.0,-100.00,ENE,73,8.0,12.0,64,0.00,,,0.00,166.000000,,2013-10-05 16:53:00,
2013-10-05 10:22:00,43.0,26.0,-100.00,NE,56,6.0,10.0,51,0.00,,,0.00,412.000000,,2013-10-05 17:22:00,
2013-10-05 10:33:00,43.0,26.0,-100.00,NE,56,6.0,10.0,51,0.00,,,0.00,412.000000,,2013-10-05 17:33:00,
2013-10-05 10:42:00,43.0,26.0,-100.00,NE,56,6.0,10.0,51,0.00,,,0.00,412.000000,,2013-10-05 17:42:00,
2013-10-05 10:52:00,43.0,26.0,-100.00,NE,56,6.0,10.0,51,0.00,,,0.00,412.000000,,2013-10-05 17:52:00,
2013-10-05 11:22:00,50.0,25.0,-100.00,NNE,32,3.0,8.0,38,0.00,,,0.00,500.000000,,2013-10-05 18:22:00,
2013-10-05 11:32:00,50.0,25.0,-100.00,NNE,32,3.0,8.0,38,0.00,,,0.00,500.000000,,2013-10-05 18:32:00,
2013-10-05 11:42:00,50.0,25.0,-100.00,NNE,32,3.0,8.0,38,0.00,,,0.00,500.000000,,2013-10-05 18:42:00,
2013-10-05 11:52:00,50.0,25.0,-100.00,NNE,32,3.0,8.0,38,0.00,,,0.00,500.000000,,2013-10-05 18:52:00,
2013-10-05 12:22:00,58.0,29.0,-100.00,West,261,4.0,10.0,33,0.00,,,0.00,635.000000,,2013-10-05 19:22:00,
2013-10-05 12:32:00,58.0,29.0,-100.00,West,261,4.0,10.0,33,0.00,,,0.00,635.000000,,2013-10-05 19:32:00,
2013-10-05 12:42:00,58.0,29.0,-100.00,West,261,4.0,10.0,33,0.00,,,0.00,635.000000,,2013-10-05 19:42:00,
2013-10-05 12:52:00,58.0,29.0,-100.00,West,261,4.0,10.0,33,0.00,,,0.00,635.000000,,2013-10-05 19:52:00,
2013-10-05 13:22:00,61.0,28.0,-100.00,NNW,342,5.0,10.0,28,0.00,,,0.00,806.000000,,2013-10-05 20:22:00,
2013-10-05 13:32:00,61.0,28.0,-100.00,NNW,342,5.0,10.0,28,0.00,,,0.00,806.000000,,2013-10-05 20:32:00,
2013-10-05 13:42:00,61.0,28.0,-100.00,NNW,342,5.0,10.0,28,0.00,,,0.00,806.000000,,2013-10-05 20:42:00,
2013-10-05 13:52:00,61.0,28.0,-100.00,NNW,342,5.0,10.0,28,0.00,,,0.00,806.000000,,2013-10-05 20:52:00,
2013-10-05 14:21:00,65.0,25.0,-100.00,NNE,25,4.0,10.0,22,0.00,,,0.00,815.000000,,2013-10-05 21:21:00,
2013-10-05 14:33:00,65.0,25.0,-100.00,NNE,25,4.0,10.0,22,0.00,,,0.00,815.000000,,2013-10-05 21:33:00,
2013-10-05 14:44:00,65.0,25.0,-100.00,NNE,25,4.0,10.0,22,0.00,,,0.00,815.000000,,2013-10-05 21:44:00,
2013-10-05 14:54:00,65.0,25.0,-100.00,NNE,25,4.0,10.0,22,0.00,,,0.00,815.000000,,2013-10-05 21:54:00,
2013-10-05 15:24:00,67.0,26.0,-100.00,NW,310,6.0,10.0,21,0.00,,,0.00,757.000000,,2013-10-05 22:24:00,
2013-10-05 15:33:00,67.0,26.0,-100.00,NW,310,6.0,10.0,21,0.00,,,0.00,757.000000,,2013-10-05 22:33:00,
2013-10-05 15:42:00,67.0,26.0,-100.00,NW,310,6.0,10.0,21,0.00,,,0.00,757.000000,,2013-10-05 22:42:00,
2013-10-05 15:53:00,67.0,26.0,-100.00,NW,310,6.0,10.0,21,0.00,,,0.00,757.000000,,2013-10-05 22:53:00,
2013-10-05 16:22:00,69.0,27.0,-100.00,WNW,285,6.0,11.0,21,0.00,,,0.00,636.000000,,2013-10-05 23:22:00,
2013-10-05 16:33:00,69.0,27.0,-100.00,WNW,285,6.0,11.0,21,0.00,,,0.00,636.000000,,2013-10-05 23:33:00,
2013-10-05 16:42:00,69.0,27.0,-100.00,WNW,285,6.0,11.0,21,0.00,,,0.00,636.000000,,2013-10-05 23:42:00,
2013-10-05 16:53:00,69.0,27.0,-100.00,WNW,285,6.0,11.0,21,0.00,,,0.00,636.000000,,2013-10-05 23:53:00,
2013-10-05 17:23:00,69.0,26.0,-100.00,West,275,7.0,11.0,20,0.00,,,0.00,461.000000,,2013-10-06 00:23:00,
2013-10-05 17:32:00,69.0,26.0,-100.00,West,275,7.0,11.0,20,0.00,,,0.00,461.000000,,2013-10-06 00:32:00,
2013-10-05 17:43:00,69.0,26.0,-100.00,West,275,7.0,11.0,20,0.00,,,0.00,461.000000,,2013-10-06 00:43:00,
2013-10-05 17:52:00,69.0,26.0,-100.00,West,275,7.0,11.0,20,0.00,,,0.00,461.000000,,2013-10-06 00:52:00,
2013-10-05 18:22:00,65.0,23.0,-100.00,WSW,251,5.0,10.0,20,0.00,,,0.00,251.000000,,2013-10-06 01:22:00,
2013-10-05 18:32:00,65.0,23.0,-100.00,WSW,251,5.0,10.0,20,0.00,,,0.00,251.000000,,2013-10-06 01:32:00,
2013-10-05 18:42:00,65.0,23.0,-100.00,WSW,251,5.0,10.0,20,0.00,,,0.00,251.000000,,2013-10-06 01:42:00,
2013-10-05 19:22:00,58.0,23.0,-100.00,WNW,290,3.0,5.0,26,0.00,,,0.00,50.000000,,2013-10-06 02:22:00,
2013-10-05 19:32:00,58.0,23.0,-100.00,WNW,290,3.0,5.0,26,0.00,,,0.00,50.000000,,2013-10-06 02:32:00,
2013-10-05 20:22:00,54.0,23.0,-100.00,NNE,19,0.0,3.0,30,0.00,,,0.00,0.000000,,2013-10-06 03:22:00,
2013-10-05 20:34:00,54.0,23.0,-100.00,NNE,19,0.0,3.0,30,0.00,,,0.00,0.000000,,2013-10-06 03:34:00,
2013-10-05 20:54:00,54.0,23.0,-100.00,NNE,19,0.0,3.0,30,0.00,,,0.00,0.000000,,2013-10-06 03:54:00,
2013-10-05 21:24:00,51.0,29.0,-100.00,ESE,109,3.0,4.0,42,0.00,,,0.00,0.000000,,2013-10-06 04:24:00,
2013-10-05 21:34:00,51.0,29.0,-100.00,ESE,109,3.0,4.0,42,0.00,,,0.00,0.000000,,2013-10-06 04:34:00,
2013-10-05 21:44:00,51.0,29.0,-100.00,ESE,109,3.0,4.0,42,0.00,,,0.00,0.000000,,2013-10-06 04:44:00,
2013-10-05 21:54:00,51.0,29.0,-100.00,ESE,109,3.0,4.0,42,0.00,,,0.00,0.000000,,2013-10-06 04:54:00,
2013-10-05 22:22:00,46.0,28.0,-100.00,East,84,4.0,6.0,49,0.00,,,0.00,0.000000,,2013-10-06 05:22:00,
2013-10-05 22:33:00,46.0,28.0,-100.00,East,84,4.0,6.0,49,0.00,,,0.00,0.000000,,2013-10-06 05:33:00,
2013-10-05 22:42:00,46.0,28.0,-100.00,East,84,4.0,6.0,49,0.00,,,0.00,0.000000,,2013-10-06 05:42:00,
2013-10-05 22:52:00,46.0,28.0,-100.00,East,84,4.0,6.0,49,0.00,,,0.00,0.000000,,2013-10-06 05:52:00,
2013-10-05 23:22:00,42.0,27.0,-100.00,East,86,4.0,6.0,54,0.00,,,0.00,0.000000,,2013-10-06 06:22:00,
2013-10-05 23:32:00,42.0,27.0,-100.00,East,86,4.0,6.0,54,0.00,,,0.00,0.000000,,2013-10-06 06:32:00,
2013-10-05 23:42:00,42.0,27.0,-100.00,East,86,4.0,6.0,54,0.00,,,0.00,0.000000,,2013-10-06 06:42:00,
2013-10-05 23:52:00,42.0,27.0,-100.00,East,86,4.0,6.0,54,0.00,,,0.00,0.000000,,2013-10-06 06:52:00,